Time;durP1;ratioP1;P1;durP2;ratioP2;P2;SDS_P1;SDS_P2;PMS_P1;PMS_P2;Temp;Humidity;BMP_temperature;BMP_pressure;BME280_temperature;BME280_humidity;BME280_pressure;Samples;Min_cycle;Max_cycle;Signal;HPM_P1;HPM_P2
2021/06/05 00:00:32;;;;;;;11.50;9.70;;;19.00;85.00;;;;;;5017498;28;20025;-83
2021/06/05 00:02:59;;;;;;;21.77;17.75;;;19.00;87.10;;;;;;5035671;28;20179;-82
2021/06/05 00:05:25;;;;;;;16.67;14.85;;;19.00;87.00;;;;;;5004751;28;20033;-82
2021/06/05 00:07:51;;;;;;;13.27;11.98;;;19.10;87.70;;;;;;5026567;28;20309;-82
2021/06/05 00:10:29;;;;;;;18.25;14.45;;;19.10;86.40;;;;;;5009172;28;20040;-83
2021/06/05 00:12:55;;;;;;;16.90;14.60;;;19.10;86.00;;;;;;5013670;28;20025;-82
2021/06/05 00:15:24;;;;;;;13.90;12.05;;;18.90;87.20;;;;;;5005572;28;20040;-83
2021/06/05 00:17:49;;;;;;;14.43;12.45;;;18.90;87.10;;;;;;5033034;28;20043;-82
2021/06/05 00:20:15;;;;;;;17.05;14.82;;;18.90;86.80;;;;;;5032213;28;20033;-82
2021/06/05 00:22:40;;;;;;;15.02;13.35;;;19.10;86.40;;;;;;5003524;28;20215;-82
2021/06/05 00:25:07;;;;;;;20.13;14.93;;;18.90;86.20;;;;;;5018189;28;20033;-83
2021/06/05 00:27:34;;;;;;;16.77;15.05;;;19.00;89.30;;;;;;5035476;28;20484;-82
2021/06/05 00:30:00;;;;;;;18.73;16.80;;;19.10;88.20;;;;;;5025606;28;20438;-82
2021/06/05 00:32:26;;;;;;;26.05;23.23;;;19.10;87.30;;;;;;5033185;28;20417;-83
2021/06/05 00:34:51;;;;;;;13.45;10.50;;;18.80;87.70;;;;;;5012662;28;20032;-82
2021/06/05 00:37:17;;;;;;;9.25;8.25;;;18.60;87.70;;;;;;5020768;28;20042;-82
2021/06/05 00:39:42;;;;;;;10.85;9.70;;;18.60;88.10;;;;;;5021102;28;20395;-82
2021/06/05 00:42:08;;;;;;;28.73;23.85;;;18.60;86.90;;;;;;5030099;28;20021;-82
2021/06/05 00:44:33;;;;;;;32.92;26.10;;;18.50;87.40;;;;;;5012707;28;20201;-83
2021/06/05 00:46:59;;;;;;;26.92;22.35;;;18.40;88.40;;;;;;5034876;28;20033;-82
2021/06/05 00:49:24;;;;;;;16.42;14.55;;;18.40;87.30;;;;;;5037111;28;20028;-82
2021/06/05 00:51:51;;;;;;;23.50;19.40;;;18.50;87.20;;;;;;5036111;28;20406;-82
2021/06/05 00:54:17;;;;;;;28.92;22.95;;;18.60;86.80;;;;;;5018549;28;20123;-82
2021/06/05 00:56:44;;;;;;;30.35;23.80;;;18.50;86.40;;;;;;5030006;28;20037;-82
2021/06/05 00:59:10;;;;;;;16.58;14.70;;;18.50;86.40;;;;;;5023533;28;20021;-82
2021/06/05 01:01:36;;;;;;;18.60;15.40;;;18.60;88.30;;;;;;5032522;28;20024;-82
2021/06/05 01:04:01;;;;;;;17.67;14.05;;;18.70;89.30;;;;;;5019351;28;20079;-82
2021/06/05 01:06:42;;;;;;;20.23;16.52;;;19.10;90.00;;;;;;5036399;28;20074;-83
2021/06/05 01:09:15;;;;;;;18.95;14.75;;;19.00;89.00;;;;;;5011736;28;20037;-82
2021/06/05 01:12:02;;;;;;;72.43;22.27;;;18.80;90.10;;;;;;5012546;28;20029;-82
2021/06/05 01:14:30;;;;;;;17.75;13.48;;;18.70;90.20;;;;;;5041714;28;20029;-82
2021/06/05 01:17:04;;;;;;;14.73;13.20;;;18.70;90.00;;;;;;5028617;28;20555;-82
2021/06/05 01:19:47;;;;;;;14.30;11.80;;;18.70;91.00;;;;;;4997419;28;20359;-82
2021/06/05 01:22:40;;;;;;;24.75;21.58;;;19.10;90.70;;;;;;5037137;28;20032;-83
2021/06/05 01:25:43;;;;;;;12.20;10.88;;;19.00;90.00;;;;;;5032287;28;20065;-82
2021/06/05 01:28:17;;;;;;;26.35;19.75;;;18.80;90.30;;;;;;5032816;28;20025;-82
2021/06/05 01:30:45;;;;;;;31.25;24.35;;;18.80;91.80;;;;;;5023787;28;20037;-82
2021/06/05 01:33:12;;;;;;;20.02;16.52;;;18.80;90.70;;;;;;5024402;28;20041;-82
2021/06/05 01:35:38;;;;;;;16.92;14.05;;;18.60;90.90;;;;;;5011471;28;20037;-82
2021/06/05 01:38:03;;;;;;;19.90;16.27;;;18.80;90.50;;;;;;5029471;28;20080;-82
2021/06/05 01:40:29;;;;;;;21.88;17.55;;;18.80;90.00;;;;;;5034287;28;20439;-82
2021/06/05 01:42:56;;;;;;;30.65;23.30;;;18.80;90.60;;;;;;5022855;28;20029;-82
2021/06/05 01:45:27;;;;;;;18.17;15.57;;;18.80;90.90;;;;;;5032707;28;20043;-82
2021/06/05 01:47:53;;;;;;;15.93;12.63;;;18.90;90.20;;;;;;5012105;28;20120;-81
2021/06/05 01:50:21;;;;;;;30.27;21.98;;;18.70;90.00;;;;;;5031343;28;20580;-81
2021/06/05 01:52:46;;;;;;;29.75;22.25;;;18.80;90.60;;;;;;5018409;28;20029;-81
2021/06/05 01:55:15;;;;;;;27.63;21.55;;;18.90;90.00;;;;;;5023214;28;20052;-81
2021/06/05 01:57:47;;;;;;;21.98;17.30;;;18.90;89.70;;;;;;4997413;28;20203;-81
2021/06/05 02:00:25;;;;;;;17.65;13.90;;;18.70;90.10;;;;;;5017874;28;20038;-81
2021/06/05 02:02:51;;;;;;;18.25;14.98;;;18.90;91.20;;;;;;5004984;28;20113;-81
2021/06/05 02:05:18;;;;;;;29.33;22.42;;;19.10;91.20;;;;;;5009788;28;20041;-80
2021/06/05 02:07:44;;;;;;;19.38;16.48;;;19.00;91.10;;;;;;5017729;28;20029;-81
2021/06/05 02:10:10;;;;;;;26.98;20.30;;;18.90;91.40;;;;;;5035414;28;20052;-81
2021/06/05 02:12:36;;;;;;;30.25;20.15;;;18.90;91.90;;;;;;5019675;28;20044;-80
2021/06/05 02:15:25;;;;;;;26.85;20.42;;;18.90;91.40;;;;;;5017921;28;20443;-79
2021/06/05 02:17:51;;;;;;;21.13;17.20;;;18.90;91.80;;;;;;5024271;28;20029;-81
2021/06/05 02:20:31;;;;;;;24.63;19.38;;;18.80;91.30;;;;;;5002580;28;20029;-80
2021/06/05 02:22:58;;;;;;;22.02;18.50;;;18.80;91.50;;;;;;5022648;28;20787;-81
2021/06/05 02:25:24;;;;;;;14.82;13.23;;;18.80;90.70;;;;;;5022193;28;20045;-81
2021/06/05 02:27:52;;;;;;;21.27;17.23;;;18.70;90.80;;;;;;5033193;28;20032;-81
2021/06/05 02:30:19;;;;;;;19.70;15.32;;;18.70;90.80;;;;;;5019747;28;20041;-81
2021/06/05 02:32:44;;;;;;;23.45;15.82;;;18.70;91.40;;;;;;5033892;28;20511;-81
2021/06/05 02:35:12;;;;;;;29.60;22.88;;;18.70;91.20;;;;;;5014547;28;20037;-81
2021/06/05 02:37:38;;;;;;;34.22;23.60;;;18.80;92.20;;;;;;5011506;28;20037;-82
2021/06/05 02:40:08;;;;;;;29.05;22.55;;;18.70;92.10;;;;;;5008019;28;20034;-81
2021/06/05 02:42:33;;;;;;;31.50;24.67;;;18.70;91.20;;;;;;5017280;28;20037;-81
2021/06/05 02:45:00;;;;;;;34.05;24.65;;;18.70;91.10;;;;;;5007099;28;20139;-82
2021/06/05 02:47:28;;;;;;;34.83;22.48;;;18.80;91.30;;;;;;4995526;28;20038;-82
2021/06/05 02:49:54;;;;;;;29.30;21.63;;;18.80;91.80;;;;;;5007992;28;20100;-82
2021/06/05 02:52:29;;;;;;;22.08;16.58;;;18.80;92.60;;;;;;5014082;28;20549;-82
2021/06/05 02:54:57;;;;;;;26.67;20.25;;;18.80;92.00;;;;;;5023129;28;20516;-82
2021/06/05 02:57:22;;;;;;;32.72;23.27;;;18.70;91.60;;;;;;5027113;28;20051;-82
2021/06/05 02:59:48;;;;;;;25.85;20.35;;;18.80;91.90;;;;;;5025788;28;20028;-82
2021/06/05 03:02:13;;;;;;;29.15;22.45;;;18.70;91.60;;;;;;5034248;28;20079;-81
2021/06/05 03:04:39;;;;;;;29.67;22.65;;;18.70;91.40;;;;;;5017988;28;20354;-81
2021/06/05 03:07:05;;;;;;;19.00;14.63;;;18.80;91.70;;;;;;5018953;28;20040;-81
2021/06/05 03:09:31;;;;;;;30.02;20.83;;;18.70;91.10;;;;;;5003959;28;20030;-82
2021/06/05 03:11:56;;;;;;;25.83;17.05;;;18.90;92.00;;;;;;5020370;28;20092;-81
2021/06/05 03:14:22;;;;;;;23.17;17.60;;;18.90;91.70;;;;;;5041976;28;20082;-81
2021/06/05 03:16:47;;;;;;;23.08;18.02;;;19.00;92.40;;;;;;5024050;28;20086;-81
2021/06/05 03:19:13;;;;;;;35.97;27.00;;;19.00;92.60;;;;;;5024490;28;20040;-80
2021/06/05 03:21:38;;;;;;;24.52;17.83;;;18.90;92.30;;;;;;5018999;28;20025;-81
2021/06/05 03:24:04;;;;;;;32.95;24.48;;;18.90;92.10;;;;;;5023113;28;20569;-81
2021/06/05 03:26:30;;;;;;;16.95;14.05;;;18.80;92.20;;;;;;5022190;28;20029;-81
2021/06/05 03:28:55;;;;;;;28.83;22.08;;;18.70;91.50;;;;;;5020719;28;20037;-81
2021/06/05 03:31:21;;;;;;;30.38;21.67;;;18.70;91.60;;;;;;5029588;28;20033;-81
2021/06/05 03:33:48;;;;;;;28.15;19.70;;;18.80;91.60;;;;;;5035445;28;20105;-81
2021/06/05 03:36:13;;;;;;;24.90;19.20;;;18.90;92.50;;;;;;5025465;28;20029;-81
2021/06/05 03:38:41;;;;;;;19.17;15.18;;;18.80;92.50;;;;;;5000262;28;20490;-81
2021/06/05 03:41:08;;;;;;;23.15;19.25;;;18.90;91.70;;;;;;5027590;28;20025;-80
2021/06/05 03:43:34;;;;;;;22.50;16.08;;;18.90;91.80;;;;;;5019500;28;20026;-81
2021/06/05 03:45:59;;;;;;;27.40;20.60;;;18.90;91.80;;;;;;5024367;28;20037;-80
2021/06/05 03:48:25;;;;;;;21.42;16.13;;;18.80;91.40;;;;;;5005168;28;20044;-81
2021/06/05 03:50:51;;;;;;;40.08;27.02;;;18.70;91.10;;;;;;5001438;28;20038;-81
2021/06/05 03:53:17;;;;;;;34.85;25.45;;;18.70;91.10;;;;;;5014349;28;20049;-80
2021/06/05 03:55:43;;;;;;;26.40;19.83;;;18.70;90.80;;;;;;4997470;28;20490;-81
2021/06/05 03:58:10;;;;;;;31.08;20.70;;;18.80;91.80;;;;;;4311258;28;10000513;-81
2021/06/05 04:00:37;;;;;;;27.20;18.50;;;18.80;91.90;;;;;;5026337;28;20044;-81
2021/06/05 04:03:03;;;;;;;29.60;21.40;;;18.90;92.10;;;;;;5004463;28;20127;-80
2021/06/05 04:05:29;;;;;;;26.83;20.73;;;18.90;91.70;;;;;;5002838;28;20045;-81
2021/06/05 04:07:54;;;;;;;27.02;18.75;;;18.90;92.60;;;;;;5001288;28;20575;-81
2021/06/05 04:10:22;;;;;;;24.15;16.98;;;18.90;92.00;;;;;;5004213;28;20068;-81
2021/06/05 04:12:49;;;;;;;41.47;27.35;;;18.80;91.50;;;;;;5002226;28;20033;-81
2021/06/05 04:15:15;;;;;;;32.38;22.55;;;18.90;91.90;;;;;;5021066;28;20029;-81
2021/06/05 04:17:40;;;;;;;27.85;20.85;;;19.00;92.30;;;;;;5012246;28;20037;-81
2021/06/05 04:20:08;;;;;;;21.23;15.75;;;19.00;91.90;;;;;;5007472;28;20029;-80
2021/06/05 04:22:33;;;;;;;24.98;18.13;;;19.10;92.10;;;;;;5031398;28;20148;-81
2021/06/05 04:25:00;;;;;;;22.98;16.98;;;19.20;92.50;;;;;;5006950;28;20120;-81
2021/06/05 04:27:26;;;;;;;24.48;18.27;;;19.30;92.50;;;;;;5016364;28;20049;-81
2021/06/05 04:29:51;;;;;;;22.05;16.63;;;19.30;92.50;;;;;;5009261;28;20464;-81
2021/06/05 04:32:17;;;;;;;19.25;15.25;;;19.30;92.40;;;;;;4993723;28;20069;-83
2021/06/05 04:34:42;;;;;;;22.17;16.88;;;19.20;92.20;;;;;;5001797;28;20060;-81
2021/06/05 04:37:08;;;;;;;30.15;22.15;;;19.20;93.00;;;;;;5033789;28;20033;-81
2021/06/05 04:39:33;;;;;;;27.92;19.15;;;19.20;93.20;;;;;;5025442;28;20036;-82
2021/06/05 04:41:59;;;;;;;24.75;17.73;;;19.10;92.80;;;;;;5001836;28;20116;-82
2021/06/05 04:44:25;;;;;;;27.88;19.73;;;19.20;92.30;;;;;;5030393;28;20103;-81
2021/06/05 04:46:50;;;;;;;32.15;22.77;;;19.20;92.20;;;;;;5019569;28;20024;-81
2021/06/05 04:49:17;;;;;;;24.55;16.40;;;19.20;92.30;;;;;;5033456;28;20037;-82
2021/06/05 04:51:42;;;;;;;27.13;19.17;;;19.30;92.10;;;;;;5011082;28;20033;-82
2021/06/05 04:54:08;;;;;;;39.40;26.30;;;19.30;92.10;;;;;;5018752;28;20494;-81
2021/06/05 04:56:36;;;;;;;30.73;22.40;;;19.30;91.70;;;;;;5014456;28;20044;-81
2021/06/05 04:59:01;;;;;;;22.48;15.23;;;19.30;91.80;;;;;;5015673;28;20029;-81
2021/06/05 05:01:27;;;;;;;36.20;26.13;;;19.40;91.60;;;;;;5031557;28;20029;-81
2021/06/05 05:03:52;;;;;;;36.53;25.17;;;19.40;93.10;;;;;;5012359;28;20035;-81
2021/06/05 05:06:18;;;;;;;33.20;22.00;;;19.40;93.30;;;;;;5016762;28;20052;-81
2021/06/05 05:08:43;;;;;;;41.13;28.35;;;19.50;93.10;;;;;;5017917;28;20063;-81
2021/06/05 05:11:10;;;;;;;39.72;25.80;;;19.40;92.40;;;;;;5023998;28;20036;-81
2021/06/05 05:13:35;;;;;;;38.30;27.23;;;19.40;93.30;;;;;;5021355;28;20477;-81
2021/06/05 05:16:02;;;;;;;34.50;24.23;;;19.40;93.10;;;;;;5004854;28;20059;-81
2021/06/05 05:18:28;;;;;;;46.15;30.45;;;19.50;93.10;;;;;;5003771;28;20032;-81
2021/06/05 05:20:53;;;;;;;46.05;29.25;;;19.50;92.80;;;;;;5001130;28;20034;-82
2021/06/05 05:23:19;;;;;;;31.45;20.17;;;19.50;92.30;;;;;;5012394;28;20026;-82
2021/06/05 05:25:45;;;;;;;40.88;25.52;;;19.50;92.10;;;;;;5023630;28;20093;-82
2021/06/05 05:28:12;;;;;;;43.75;27.35;;;19.50;92.70;;;;;;5020104;28;20038;-82
2021/06/05 05:30:40;;;;;;;43.28;28.02;;;19.50;92.40;;;;;;5028147;28;20029;-82
2021/06/05 05:33:06;;;;;;;50.88;31.88;;;19.60;91.90;;;;;;5027584;28;20044;-82
2021/06/05 05:35:33;;;;;;;40.60;28.35;;;19.70;92.40;;;;;;5013020;28;20074;-82
2021/06/05 05:37:59;;;;;;;37.33;25.70;;;19.70;91.90;;;;;;5042032;28;20025;-82
2021/06/05 05:40:25;;;;;;;36.45;25.15;;;19.80;92.40;;;;;;5019159;28;20032;-83
2021/06/05 05:42:50;;;;;;;37.10;26.75;;;19.80;92.00;;;;;;5006119;28;20061;-81
2021/06/05 05:45:16;;;;;;;32.40;22.42;;;19.80;91.90;;;;;;5026996;28;20045;-82
2021/06/05 05:47:42;;;;;;;32.97;22.58;;;19.90;91.80;;;;;;5028001;28;20124;-81
2021/06/05 05:50:11;;;;;;;52.03;36.58;;;19.90;91.90;;;;;;5032204;28;20458;-81
2021/06/05 05:52:36;;;;;;;34.22;24.33;;;20.00;91.90;;;;;;5025753;28;20033;-81
2021/06/05 05:55:02;;;;;;;41.47;26.85;;;20.00;92.10;;;;;;5032440;28;20508;-82
2021/06/05 05:57:28;;;;;;;46.80;29.38;;;20.10;92.00;;;;;;5020664;28;20064;-82
2021/06/05 05:59:53;;;;;;;39.72;26.50;;;20.20;91.80;;;;;;5041176;28;20060;-81
2021/06/05 06:02:19;;;;;;;35.13;24.58;;;20.20;91.40;;;;;;5023136;28;20116;-81
2021/06/05 06:04:45;;;;;;;45.83;27.20;;;20.30;91.30;;;;;;5022898;28;20037;-81
2021/06/05 06:07:10;;;;;;;36.25;26.25;;;20.30;91.80;;;;;;5023402;28;20025;-82
2021/06/05 06:09:36;;;;;;;38.35;26.70;;;20.30;91.70;;;;;;4994351;28;20029;-83
2021/06/05 06:12:01;;;;;;;44.28;28.58;;;20.30;92.20;;;;;;5014863;28;20040;-82
2021/06/05 06:14:27;;;;;;;45.38;29.38;;;20.40;91.70;;;;;;5034825;28;20032;-83
2021/06/05 06:16:52;;;;;;;39.28;23.52;;;20.40;92.40;;;;;;5002663;28;20535;-82
2021/06/05 06:19:18;;;;;;;42.97;27.48;;;20.40;91.90;;;;;;5024294;28;20640;-83
2021/06/05 06:21:44;;;;;;;38.17;22.88;;;20.50;91.90;;;;;;5024163;28;20559;-83
2021/06/05 06:24:10;;;;;;;40.38;27.25;;;20.40;91.50;;;;;;5045415;28;20112;-83
2021/06/05 06:26:38;;;;;;;34.92;24.02;;;20.60;91.50;;;;;;5029030;28;20392;-83
2021/06/05 06:29:16;;;;;;;49.05;30.70;;;20.60;91.30;;;;;;5040865;28;20059;-82
2021/06/05 06:31:42;;;;;;;37.05;25.40;;;20.70;91.40;;;;;;5018758;28;20036;-83
2021/06/05 06:34:08;;;;;;;42.63;27.92;;;20.70;91.10;;;;;;5004724;28;20029;-80
2021/06/05 06:36:34;;;;;;;37.72;25.85;;;20.70;91.60;;;;;;5022859;28;20040;-80
2021/06/05 06:39:00;;;;;;;50.33;30.23;;;20.80;91.30;;;;;;5007458;28;20026;-79
2021/06/05 06:41:28;;;;;;;40.72;26.65;;;20.80;91.80;;;;;;5028137;28;20052;-81
2021/06/05 06:43:58;;;;;;;37.33;25.40;;;20.80;91.40;;;;;;5048605;28;20048;-81
2021/06/05 06:46:38;;;;;;;35.30;23.42;;;20.90;91.50;;;;;;5021452;28;20048;-83
2021/06/05 06:49:04;;;;;;;36.88;25.15;;;20.90;91.50;;;;;;5028997;28;20104;-83
2021/06/05 06:51:29;;;;;;;34.72;23.92;;;20.90;91.40;;;;;;5016879;28;20103;-82
2021/06/05 06:53:55;;;;;;;39.92;22.80;;;20.90;91.30;;;;;;5047207;28;20026;-82
2021/06/05 06:56:28;;;;;;;30.27;22.83;;;21.00;91.30;;;;;;5048347;28;20056;-82
2021/06/05 06:58:54;;;;;;;32.45;22.65;;;20.90;91.50;;;;;;5026273;28;20030;-82
2021/06/05 07:01:19;;;;;;;43.78;27.02;;;21.00;91.60;;;;;;5034561;28;20083;-82
2021/06/05 07:03:45;;;;;;;37.40;23.63;;;21.10;91.20;;;;;;5010733;28;20029;-82
2021/06/05 07:06:11;;;;;;;32.65;20.30;;;21.00;91.50;;;;;;5015656;28;20040;-83
2021/06/05 07:08:39;;;;;;;35.35;24.02;;;21.10;91.00;;;;;;5032530;28;20036;-83
2021/06/05 07:11:17;;;;;;;32.38;22.67;;;21.10;91.40;;;;;;5027069;28;20551;-84
2021/06/05 07:13:42;;;;;;;35.70;23.27;;;21.10;91.10;;;;;;5019256;28;20036;-84
2021/06/05 07:16:08;;;;;;;31.75;23.25;;;21.20;91.10;;;;;;5044241;28;20049;-85
2021/06/05 07:18:34;;;;;;;37.45;24.00;;;21.10;91.20;;;;;;5024527;28;20032;-83
2021/06/05 07:21:00;;;;;;;28.95;21.27;;;21.10;91.00;;;;;;5009080;28;20048;-82
2021/06/05 07:23:28;;;;;;;32.85;24.05;;;21.10;90.90;;;;;;5003626;28;20065;-83
2021/06/05 07:25:55;;;;;;;36.17;23.85;;;21.00;90.90;;;;;;5003550;28;20042;-83
2021/06/05 07:28:23;;;;;;;34.13;24.17;;;21.00;91.60;;;;;;5019056;28;20139;-81
2021/06/05 07:30:49;;;;;;;38.50;24.40;;;21.00;91.30;;;;;;5031488;28;20176;-81
2021/06/05 07:33:15;;;;;;;30.23;19.85;;;21.00;91.30;;;;;;5023716;28;20124;-81
2021/06/05 07:35:41;;;;;;;34.58;22.80;;;20.90;91.30;;;;;;5011779;28;20041;-80
2021/06/05 07:38:07;;;;;;;32.97;22.63;;;20.90;91.40;;;;;;5024450;28;20477;-82
2021/06/05 07:40:33;;;;;;;35.38;23.92;;;20.90;91.00;;;;;;5008181;28;20029;-81
2021/06/05 07:42:59;;;;;;;34.90;23.70;;;20.90;91.30;;;;;;5040757;28;20515;-81
2021/06/05 07:45:24;;;;;;;27.77;19.17;;;21.00;91.30;;;;;;5031024;28;20090;-80
2021/06/05 07:47:50;;;;;;;32.50;18.98;;;21.00;91.00;;;;;;5016719;28;20041;-81
2021/06/05 07:50:16;;;;;;;35.63;22.00;;;21.00;91.10;;;;;;5027193;28;20033;-80
2021/06/05 07:52:41;;;;;;;37.00;24.73;;;21.00;91.40;;;;;;5026973;28;20029;-81
2021/06/05 07:55:07;;;;;;;36.10;22.60;;;21.00;91.50;;;;;;5019720;28;20083;-82
2021/06/05 07:57:33;;;;;;;32.78;23.20;;;21.10;91.30;;;;;;5021913;28;20033;-83
2021/06/05 07:59:59;;;;;;;31.05;20.73;;;21.00;91.40;;;;;;5011534;28;20504;-84
2021/06/05 08:02:24;;;;;;;33.33;21.77;;;21.10;91.50;;;;;;5036015;28;20061;-81
2021/06/05 08:04:50;;;;;;;31.67;22.98;;;21.10;91.40;;;;;;5024044;28;20112;-82
2021/06/05 08:07:18;;;;;;;27.42;19.38;;;21.10;91.50;;;;;;5038188;28;20445;-81
2021/06/05 08:09:43;;;;;;;29.92;20.30;;;21.10;91.20;;;;;;5013281;28;20043;-81
2021/06/05 08:12:09;;;;;;;43.40;28.83;;;21.30;91.20;;;;;;5021926;28;20033;-81
2021/06/05 08:14:35;;;;;;;31.05;21.73;;;21.30;91.30;;;;;;5026622;28;20035;-81
2021/06/05 08:17:01;;;;;;;33.53;22.92;;;21.30;91.10;;;;;;5017955;28;20021;-80
2021/06/05 08:19:26;;;;;;;27.92;19.50;;;21.20;91.60;;;;;;5024097;28;20104;-80
2021/06/05 08:21:52;;;;;;;26.13;18.52;;;21.30;91.20;;;;;;5036892;28;20507;-80
2021/06/05 08:24:18;;;;;;;28.05;18.30;;;21.40;91.20;;;;;;5020690;28;20473;-81
2021/06/05 08:26:44;;;;;;;26.52;19.38;;;21.40;91.00;;;;;;5045153;28;20033;-81
2021/06/05 08:29:10;;;;;;;31.75;22.23;;;21.50;91.30;;;;;;5020826;28;20029;-81
2021/06/05 08:31:35;;;;;;;26.08;20.33;;;21.60;91.40;;;;;;5020626;28;20029;-81
2021/06/05 08:34:02;;;;;;;28.95;20.35;;;21.70;91.00;;;;;;5034822;28;20523;-81
2021/06/05 08:36:28;;;;;;;30.77;21.20;;;21.60;91.10;;;;;;5021968;28;20029;-81
2021/06/05 08:38:54;;;;;;;29.55;21.00;;;21.70;91.30;;;;;;5019417;28;20037;-81
2021/06/05 08:41:29;;;;;;;28.52;19.25;;;21.70;91.00;;;;;;5023764;28;20365;-81
2021/06/05 08:44:06;;;;;;;24.65;17.88;;;21.80;91.30;;;;;;5024993;28;20108;-81
2021/06/05 08:46:51;;;;;;;27.88;20.63;;;21.80;90.70;;;;;;5025472;28;20033;-81
2021/06/05 08:49:19;;;;;;;28.45;21.33;;;21.80;91.40;;;;;;5008773;28;20176;-80
2021/06/05 08:51:53;;;;;;;23.92;16.48;;;21.70;91.10;;;;;;5018153;28;20037;-80
2021/06/05 08:54:31;;;;;;;30.65;24.10;;;21.90;91.10;;;;;;5014232;28;20095;-79
2021/06/05 08:57:08;;;;;;;29.50;21.98;;;21.90;91.30;;;;;;5030132;28;20025;-80
2021/06/05 08:59:33;;;;;;;30.13;21.13;;;22.00;91.60;;;;;;5021404;28;20022;-80
2021/06/05 09:01:59;;;;;;;25.80;19.67;;;22.10;91.60;;;;;;5036551;28;20066;-80
2021/06/05 09:04:25;;;;;;;43.38;29.30;;;22.10;90.60;;;;;;5024104;28;20029;-80
2021/06/05 09:06:59;;;;;;;22.17;16.88;;;22.10;91.60;;;;;;5025036;28;20118;-80
2021/06/05 09:09:36;;;;;;;38.17;27.60;;;22.10;90.20;;;;;;5036932;28;20028;-79
2021/06/05 09:12:03;;;;;;;47.72;34.20;;;22.10;90.80;;;;;;5018291;28;20025;-80
2021/06/05 09:14:28;;;;;;;53.30;37.75;;;22.20;91.70;;;;;;5036106;28;20052;-79
2021/06/05 09:16:54;;;;;;;60.00;41.83;;;22.30;91.50;;;;;;4997174;28;20038;-80
2021/06/05 09:19:37;;;;;;;33.92;24.80;;;22.50;91.90;;;;;;4990180;28;20069;-80
2021/06/05 09:22:05;;;;;;;38.60;27.38;;;22.70;90.40;;;;;;5002363;28;20121;-80
2021/06/05 09:24:32;;;;;;;54.97;39.15;;;22.80;90.20;;;;;;5044994;28;20099;-80
2021/06/05 09:27:08;;;;;;;62.15;41.17;;;23.00;91.70;;;;;;5035313;28;20048;-80
2021/06/05 09:29:58;;;;;;;57.75;38.08;;;23.00;91.20;;;;;;5015810;28;20029;-80
2021/06/05 09:32:35;;;;;;;52.60;36.55;;;23.20;91.40;;;;;;5020690;28;20401;-79
2021/06/05 09:35:04;;;;;;;59.20;40.08;;;23.10;90.90;;;;;;5041632;28;20021;-81
2021/06/05 09:37:39;;;;;;;53.35;36.75;;;23.30;91.70;;;;;;5035632;28;20025;-80
2021/06/05 09:40:20;;;;;;;53.67;37.70;;;23.30;90.30;;;;;;5025057;28;20036;-80
2021/06/05 09:42:48;;;;;;;60.25;43.15;;;23.30;90.50;;;;;;5037699;28;20034;-81
2021/06/05 09:45:19;;;;;;;48.38;35.42;;;23.60;91.50;;;;;;5022422;28;20033;-80
2021/06/05 09:47:45;;;;;;;44.40;32.03;;;23.60;90.00;;;;;;5034914;28;20488;-80
2021/06/05 09:50:26;;;;;;;46.45;30.88;;;24.20;90.90;;;;;;5030455;28;20029;-80
2021/06/05 09:52:52;;;;;;;52.47;37.95;;;23.90;87.40;;;;;;5003293;28;20497;-80
2021/06/05 09:55:17;;;;;;;43.22;30.35;;;24.30;91.50;;;;;;5036217;28;20042;-80
2021/06/05 09:57:44;;;;;;;42.83;31.10;;;24.40;90.00;;;;;;5038117;28;20106;-80
2021/06/05 10:00:30;;;;;;;37.50;30.15;;;24.60;87.50;;;;;;5007332;28;20635;-81
2021/06/05 10:03:34;;;;;;;39.35;29.25;;;24.90;89.50;;;;;;5033749;28;20550;-80
2021/06/05 10:06:14;;;;;;;39.42;28.52;;;25.20;90.30;;;;;;5039499;28;20037;-80
2021/06/05 10:08:41;;;;;;;41.28;29.80;;;25.60;90.20;;;;;;5034944;28;20493;-80
2021/06/05 10:11:31;;;;;;;35.03;27.35;;;25.80;86.90;;;;;;5008433;28;20034;-79
2021/06/05 10:14:16;;;;;;;34.70;26.85;;;25.90;83.50;;;;;;5027752;28;20337;-80
2021/06/05 10:16:45;;;;;;;33.95;25.95;;;26.00;86.10;;;;;;5022278;28;20026;-80
2021/06/05 10:19:31;;;;;;;32.65;24.95;;;26.40;84.00;;;;;;5035896;28;20052;-80
2021/06/05 10:21:56;;;;;;;40.65;31.23;;;26.90;85.00;;;;;;5029361;28;20029;-80
2021/06/05 10:24:35;;;;;;;39.88;31.02;;;28.20;88.30;;;;;;5020853;28;20102;-81
2021/06/05 10:27:23;;;;;;;34.50;25.92;;;28.30;86.60;;;;;;5009103;28;20045;-81
2021/06/05 10:29:50;;;;;;;37.05;26.00;;;28.20;78.70;;;;;;5014740;28;20446;-81
2021/06/05 10:32:22;;;;;;;28.77;23.02;;;27.30;77.80;;;;;;5028438;28;20029;-80
2021/06/05 10:34:52;;;;;;;40.92;29.17;;;27.60;79.20;;;;;;5027609;28;20025;-81
2021/06/05 10:37:23;;;;;;;35.72;26.58;;;28.50;79.60;;;;;;5027149;28;20053;-81
2021/06/05 10:39:48;;;;;;;35.05;26.08;;;28.50;74.80;;;;;;5001047;28;20029;-80
2021/06/05 10:42:37;;;;;;;38.03;27.15;;;28.10;74.10;;;;;;5010208;28;20500;-80
2021/06/05 10:45:03;;;;;;;37.92;26.60;;;28.00;75.40;;;;;;5039655;28;20033;-82
2021/06/05 10:47:50;;;;;;;34.90;26.13;;;28.60;80.30;;;;;;5018059;28;20033;-81
2021/06/05 10:50:25;;;;;;;34.47;26.98;;;29.50;80.50;;;;;;5013373;28;20036;-81
2021/06/05 10:53:13;;;;;;;36.08;27.35;;;30.00;78.90;;;;;;5016261;28;20043;-82
2021/06/05 10:55:46;;;;;;;34.72;25.30;;;30.10;70.70;;;;;;5037456;28;20125;-80
2021/06/05 10:58:24;;;;;;;33.35;26.75;;;28.60;73.10;;;;;;5007817;28;20481;-79
2021/06/05 11:00:59;;;;;;;34.08;25.45;;;29.40;71.00;;;;;;5039497;28;20033;-79
2021/06/05 11:03:27;;;;;;;30.67;23.25;;;29.70;71.70;;;;;;5034925;28;20501;-79
2021/06/05 11:06:11;;;;;;;31.73;23.65;;;30.90;72.30;;;;;;5033426;28;20522;-79
2021/06/05 11:08:45;;;;;;;30.35;23.85;;;31.10;68.30;;;;;;5035530;28;20035;-78
2021/06/05 11:11:33;;;;;;;29.83;23.70;;;31.80;67.20;;;;;;5030519;28;20533;-79
2021/06/05 11:14:01;;;;;;;25.83;22.30;;;32.60;71.20;;;;;;5035979;28;20030;-76
2021/06/05 11:16:57;;;;;;;23.65;20.95;;;32.80;73.20;;;;;;5038802;28;20036;-76
2021/06/05 11:19:43;;;;;;;21.50;18.80;;;33.10;67.50;;;;;;5031637;28;20051;-76
2021/06/05 11:22:11;;;;;;;32.15;26.60;;;33.40;65.50;;;;;;5038947;28;20540;-76
2021/06/05 11:24:38;;;;;;;28.13;21.17;;;33.40;68.40;;;;;;5035969;28;20113;-76
2021/06/05 11:27:05;;;;;;;26.73;22.70;;;33.10;65.40;;;;;;5034345;28;20514;-76
2021/06/05 11:29:31;;;;;;;26.38;21.98;;;33.20;65.10;;;;;;5018946;28;20508;-75
2021/06/05 11:32:19;;;;;;;28.63;22.20;;;33.30;64.50;;;;;;5034197;28;20022;-76
2021/06/05 11:34:44;;;;;;;31.25;24.38;;;32.00;63.40;;;;;;4678274;28;9999719;-77
2021/06/05 11:37:13;;;;;;;26.02;20.38;;;32.50;65.50;;;;;;5035317;28;20025;-78
2021/06/05 11:39:42;;;;;;;30.70;25.17;;;32.40;63.70;;;;;;5040623;28;20029;-76
2021/06/05 11:42:17;;;;;;;25.20;21.42;;;32.70;65.30;;;;;;5039379;28;20022;-76
2021/06/05 11:44:44;;;;;;;24.50;20.08;;;32.60;63.20;;;;;;5034837;28;20114;-76
2021/06/05 11:47:16;;;;;;;22.95;19.35;;;32.60;61.60;;;;;;5024953;28;20036;-75
2021/06/05 11:50:12;;;;;;;25.45;21.85;;;32.60;64.20;;;;;;5033603;28;20045;-76
2021/06/05 11:53:14;;;;;;;24.42;21.63;;;32.40;63.90;;;;;;5027893;28;20033;-75
2021/06/05 11:55:50;;;;;;;27.80;23.33;;;32.40;63.40;;;;;;5033234;28;20404;-76
2021/06/05 11:58:18;;;;;;;21.35;19.02;;;33.10;61.90;;;;;;5025438;28;20056;-76
2021/06/05 12:00:49;;;;;;;24.13;19.17;;;32.70;60.20;;;;;;5030360;28;20326;-76
2021/06/05 12:03:27;;;;;;;22.13;19.33;;;32.40;61.60;;;;;;5019898;28;20029;-76
2021/06/05 12:06:08;;;;;;;27.15;23.20;;;32.50;60.20;;;;;;5031927;28;20552;-76
2021/06/05 12:08:33;;;;;;;31.88;25.45;;;31.80;64.80;;;;;;5000125;28;20025;-75
2021/06/05 12:10:59;;;;;;;33.60;27.02;;;31.80;64.00;;;;;;5022905;28;20029;-77
2021/06/05 12:13:34;;;;;;;26.30;20.58;;;32.50;62.30;;;;;;5017218;28;20040;-77
2021/06/05 12:16:28;;;;;;;30.83;23.88;;;32.40;61.10;;;;;;5038129;28;20033;-76
2021/06/05 12:18:53;;;;;;;31.35;26.33;;;32.50;60.60;;;;;;5026066;28;20033;-77
2021/06/05 12:21:34;;;;;;;32.45;27.67;;;32.40;60.70;;;;;;5038259;28;20041;-76
2021/06/05 12:24:14;;;;;;;29.83;25.52;;;32.00;60.90;;;;;;5034374;28;20029;-77
2021/06/05 12:26:54;;;;;;;26.77;22.73;;;31.70;62.20;;;;;;5033019;28;20029;-76
2021/06/05 12:29:24;;;;;;;28.20;23.00;;;31.60;61.70;;;;;;5038861;28;20029;-76
2021/06/05 12:31:53;;;;;;;23.17;19.67;;;31.70;61.90;;;;;;5035832;28;20377;-76
2021/06/05 12:34:35;;;;;;;22.33;19.92;;;31.50;62.20;;;;;;5022460;28;20037;-76
2021/06/05 12:37:22;;;;;;;29.20;23.88;;;31.20;62.70;;;;;;5018625;28;20033;-76